Impacts TAF Board
For situational awareness. Not to be used for flight planning purposes.
IDs:

KDTW - Detroit Metro/Wayne, MI, US

Issued at 2058 UTC 20 Oct 2018
Updated at 2153 UTC 20 Oct 2018
Potential Impact None Slight Moderate High
Time<<21/10Z 21/11Z 21/12Z 21/13Z 21/14Z 21/15Z 21/16Z 21/17Z 21/18Z 21/19Z 21/20Z 21/21Z 21/22Z>>
Type PRVL PRVL PRVL PRVL PRVL PRVL PRVL PRVL PRVL PRVL PRVL PRVL PRVL
VIS >6 >6 >6 >6 >6 >6 >6 >6 >6 >6 >6 >6 >6
CIG 25 25 -- -- -- -- -- -- -- -- -- -- --
Cover BKN BKN SCT SCT SCT SCT SCT SCT SCT SCT SCT SCT SCT
FltCat MVFR MVFR VFR VFR VFR VFR VFR VFR VFR VFR VFR VFR VFR
WX -- -- -- -- -- -- -- -- -- -- -- -- --
WDir 300 300 300 300 300 300 300 300 300 300 300 300 300
WSpd 11 11 8 8 8 8 8 8 8 8 8 8 8
WGst -- -- -- -- -- -- -- -- -- -- -- -- --
Raw TAF
KDTW 202058Z 2021/2124 28015G25KT P6SM -SHRA BKN035
  TEMPO 2021/2022 2SM -TSRA BR BKN020CB OVC035
  FM202300 32017G32KT P6SM BKN035
  FM210400 30011KT P6SM BKN025
  FM211200 30008KT P6SM SCT040


METAR Board
Radar Display
Forecast Discussion
For situational awareness. Not to be used for flight planning purposes.